Time;durP1;ratioP1;P1;durP2;ratioP2;P2;SDS_P1;SDS_P2;PMS_P1;PMS_P2;Temp;Humidity;BMP_temperature;BMP_pressure;BME280_temperature;BME280_humidity;BME280_pressure;Samples;Min_cycle;Max_cycle;Signal;HPM_P1;HPM_P2
2022/07/28 00:01:56;;;;;;;2.70;1.23;;;;;;;;;;5035702;28;20080;-60
2022/07/28 00:04:23;;;;;;;3.70;1.17;;;;;;;;;;5038084;28;20045;-60
2022/07/28 00:06:50;;;;;;;2.08;1.30;;;;;;;;;;5035067;28;20140;-60
2022/07/28 00:09:18;;;;;;;;;;;;;;;;;;5034168;28;20056;-60
2022/07/28 00:11:45;;;;;;;3.17;1.30;;;;;;;;;;5036910;28;20016;-60
2022/07/28 00:14:21;;;;;;;2.92;1.15;;;;;;;;;;5033016;28;20054;-60
2022/07/28 00:16:48;;;;;;;4.10;1.23;;;;;;;;;;5031541;28;20139;-59
2022/07/28 00:19:16;;;;;;;5.68;1.70;;;;;;;;;;5025153;28;20538;-60
2022/07/28 00:21:43;;;;;;;4.80;1.60;;;;;;;;;;5013760;28;20066;-60
2022/07/28 00:24:10;;;;;;;4.03;1.38;;;;;;;;;;5012951;28;20164;-60
2022/07/28 00:26:38;;;;;;;;;;;;;;;;;;5013312;28;20550;-60
2022/07/28 00:29:07;;;;;;;2.92;1.25;;;;;;;;;;5010557;28;19921;-60
2022/07/28 00:31:34;;;;;;;2.28;1.75;;;;;;;;;;5009666;28;20046;-60
2022/07/28 00:34:02;;;;;;;3.72;1.05;;;;;;;;;;4998569;28;20049;-60
2022/07/28 00:36:29;;;;;;;3.55;1.38;;;;;;;;;;4996223;28;20179;-59
2022/07/28 00:38:56;;;;;;;1.50;1.10;;;;;;;;;;5000840;28;20057;-60
2022/07/28 00:41:24;;;;;;;3.72;1.42;;;;;;;;;;4998310;28;20128;-60
2022/07/28 00:43:51;;;;;;;4.15;1.23;;;;;;;;;;4999244;28;20050;-60
2022/07/28 00:46:20;;;;;;;3.15;1.20;;;;;;;;;;5000935;28;20054;-60
2022/07/28 00:48:49;;;;;;;5.38;1.23;;;;;;;;;;5002319;28;20105;-60
2022/07/28 00:51:17;;;;;;;4.28;1.50;;;;;;;;;;4997235;28;20050;-60
2022/07/28 00:53:45;;;;;;;4.03;1.30;;;;;;;;;;4997781;28;20108;-61
2022/07/28 00:56:12;;;;;;;2.90;1.30;;;;;;;;;;5000510;28;20586;-60
2022/07/28 00:58:40;;;;;;;2.15;1.20;;;;;;;;;;5000473;28;20132;-60
2022/07/28 01:01:08;;;;;;;2.65;1.52;;;;;;;;;;4996993;28;20505;-60
2022/07/28 01:03:38;;;;;;;2.15;1.10;;;;;;;;;;4999933;28;20046;-60
2022/07/28 01:06:11;;;;;;;0.80;0.80;;;;;;;;;;4997294;28;20164;-60
2022/07/28 01:08:45;;;;;;;2.20;0.75;;;;;;;;;;4998714;28;20081;-60
2022/07/28 01:11:16;;;;;;;0.82;0.70;;;;;;;;;;4997844;28;20050;-60
2022/07/28 01:13:47;;;;;;;1.33;0.82;;;;;;;;;;4998888;28;20053;-60
2022/07/28 01:16:14;;;;;;;2.88;1.30;;;;;;;;;;4998691;28;20092;-61
2022/07/28 01:18:52;;;;;;;2.63;1.05;;;;;;;;;;4998946;28;20050;-59
2022/07/28 01:21:25;;;;;;;4.60;1.23;;;;;;;;;;4999217;28;20084;-60
2022/07/28 01:23:59;;;;;;;1.88;1.25;;;;;;;;;;5000168;28;20050;-61
2022/07/28 01:26:30;;;;;;;2.65;1.02;;;;;;;;;;4998736;28;20080;-60
2022/07/28 01:29:11;;;;;;;6.78;1.35;;;;;;;;;;4999303;28;20082;-60
2022/07/28 01:31:42;;;;;;;2.15;1.20;;;;;;;;;;4999361;28;20500;-60
2022/07/28 01:34:14;;;;;;;2.85;1.67;;;;;;;;;;4999174;28;20050;-59
2022/07/28 01:36:45;;;;;;;4.45;1.50;;;;;;;;;;4995738;28;20049;-61
2022/07/28 01:39:13;;;;;;;2.08;1.10;;;;;;;;;;4994040;28;20054;-60
2022/07/28 01:41:43;;;;;;;6.32;1.42;;;;;;;;;;4995901;28;20563;-60
2022/07/28 01:44:14;;;;;;;3.17;1.30;;;;;;;;;;4997818;28;20046;-60
2022/07/28 01:46:43;;;;;;;6.30;1.60;;;;;;;;;;4999851;28;20096;-60
2022/07/28 01:49:12;;;;;;;2.33;1.33;;;;;;;;;;4996019;28;20501;-60
2022/07/28 01:51:40;;;;;;;3.95;1.15;;;;;;;;;;4995092;28;20046;-60
2022/07/28 01:54:08;;;;;;;4.32;1.20;;;;;;;;;;4997299;28;20144;-60
2022/07/28 01:56:36;;;;;;;4.88;1.13;;;;;;;;;;4993866;28;20060;-60
2022/07/28 01:59:05;;;;;;;1.85;0.82;;;;;;;;;;4997718;28;20498;-60
2022/07/28 02:01:37;;;;;;;4.32;1.08;;;;;;;;;;4999250;28;20505;-60
2022/07/28 02:04:06;;;;;;;1.38;1.25;;;;;;;;;;5000084;28;20046;-60
2022/07/28 02:06:34;;;;;;;1.90;1.15;;;;;;;;;;4997046;28;20147;-60
2022/07/28 02:09:03;;;;;;;1.98;1.20;;;;;;;;;;5006087;28;20536;-60
2022/07/28 02:11:40;;;;;;;2.10;1.10;;;;;;;;;;5000477;28;20096;-60
2022/07/28 02:14:10;;;;;;;4.03;1.58;;;;;;;;;;4997039;28;20089;-60
2022/07/28 02:16:40;;;;;;;2.80;1.45;;;;;;;;;;4997365;28;20062;-60
2022/07/28 02:19:08;;;;;;;4.57;1.67;;;;;;;;;;4998152;28;20077;-60
2022/07/28 02:21:36;;;;;;;3.13;1.58;;;;;;;;;;4997368;28;20093;-60
2022/07/28 02:24:04;;;;;;;4.65;1.65;;;;;;;;;;4997992;28;20046;-61
2022/07/28 02:26:33;;;;;;;4.07;1.63;;;;;;;;;;4998617;28;20472;-60
2022/07/28 02:29:02;;;;;;;4.05;1.65;;;;;;;;;;4998862;28;20104;-60
2022/07/28 02:31:31;;;;;;;4.80;1.30;;;;;;;;;;4998839;28;20101;-60
2022/07/28 02:34:00;;;;;;;2.47;0.88;;;;;;;;;;4997200;28;20057;-61
2022/07/28 02:36:32;;;;;;;3.70;1.10;;;;;;;;;;4992343;28;20046;-61
2022/07/28 02:39:07;;;;;;;3.28;0.88;;;;;;;;;;4996450;28;20540;-60
2022/07/28 02:41:43;;;;;;;1.55;0.98;;;;;;;;;;4995688;28;20050;-60
2022/07/28 02:44:13;;;;;;;4.00;1.00;;;;;;;;;;4999324;28;20670;-60
2022/07/28 02:46:43;;;;;;;2.08;1.27;;;;;;;;;;4995384;28;20053;-61
2022/07/28 02:49:14;;;;;;;2.10;1.00;;;;;;;;;;4994492;28;20469;-60
2022/07/28 02:51:42;;;;;;;1.48;1.10;;;;;;;;;;4993232;28;20050;-60
2022/07/28 02:54:10;;;;;;;1.38;1.20;;;;;;;;;;4993642;28;20050;-60
2022/07/28 02:56:39;;;;;;;7.97;1.33;;;;;;;;;;4994720;28;20038;-60
2022/07/28 02:59:19;;;;;;;3.58;1.10;;;;;;;;;;4999140;28;20048;-61
2022/07/28 03:01:47;;;;;;;5.18;1.30;;;;;;;;;;4992773;28;20058;-59
2022/07/28 03:04:15;;;;;;;1.75;1.08;;;;;;;;;;4996578;28;20050;-60
2022/07/28 03:06:43;;;;;;;3.13;1.52;;;;;;;;;;4995107;28;20050;-60
2022/07/28 03:09:11;;;;;;;3.70;1.20;;;;;;;;;;4996111;28;20568;-60
2022/07/28 03:11:38;;;;;;;;;;;;;;;;;;4993352;28;20046;-61
2022/07/28 03:14:05;;;;;;;2.63;1.15;;;;;;;;;;4995048;28;19953;-63
2022/07/28 03:16:33;;;;;;;2.00;1.38;;;;;;;;;;4994603;28;22327;-60
2022/07/28 03:19:00;;;;;;;3.50;1.63;;;;;;;;;;4993023;28;20050;-60
2022/07/28 03:21:27;;;;;;;3.13;1.50;;;;;;;;;;4997717;28;20066;-60
2022/07/28 03:23:55;;;;;;;1.55;1.35;;;;;;;;;;4993756;28;20081;-61
2022/07/28 03:26:28;;;;;;;2.35;1.45;;;;;;;;;;4996694;28;20074;-60
2022/07/28 03:28:57;;;;;;;5.38;1.75;;;;;;;;;;4994804;28;20050;-60
2022/07/28 03:31:25;;;;;;;8.57;1.70;;;;;;;;;;5000259;28;20473;-60
2022/07/28 03:33:52;;;;;;;;;;;;;;;;;;4995443;28;20074;-60
2022/07/28 03:36:24;;;;;;;8.63;1.58;;;;;;;;;;4990213;28;21140;-61
2022/07/28 03:38:53;;;;;;;2.17;1.65;;;;;;;;;;4993000;28;20148;-61
2022/07/28 03:41:21;;;;;;;4.50;1.92;;;;;;;;;;4992853;28;20066;-61
2022/07/28 03:43:48;;;;;;;;;;;;;;;;;;4996021;28;20182;-60
2022/07/28 03:46:15;;;;;;;57.88;3.72;;;;;;;;;;4993721;28;19976;-61
2022/07/28 03:48:43;;;;;;;63.05;3.97;;;;;;;;;;4998403;28;20164;-60
2022/07/28 03:51:10;;;;;;;6.70;3.03;;;;;;;;;;4998237;28;20046;-61
2022/07/28 03:53:38;;;;;;;;;;;;;;;;;;4994973;28;20046;-61
2022/07/28 03:56:05;;;;;;;12.65;2.97;;;;;;;;;;4993833;28;19965;-62
2022/07/28 03:58:32;;;;;;;6.82;3.10;;;;;;;;;;4995896;28;20066;-60
2022/07/28 04:01:00;;;;;;;8.13;2.88;;;;;;;;;;4996114;28;20077;-61
2022/07/28 04:03:29;;;;;;;8.50;2.83;;;;;;;;;;4998900;28;20506;-60
2022/07/28 04:06:09;;;;;;;8.55;2.92;;;;;;;;;;4995359;28;20051;-60
2022/07/28 04:08:36;;;;;;;9.77;2.45;;;;;;;;;;5000128;28;20073;-60
2022/07/28 04:11:04;;;;;;;4.35;2.15;;;;;;;;;;5001163;28;20104;-60
2022/07/28 04:13:35;;;;;;;2.60;1.77;;;;;;;;;;4997018;28;20135;-60
2022/07/28 04:16:03;;;;;;;7.72;2.13;;;;;;;;;;5002195;28;20507;-61
2022/07/28 04:18:30;;;;;;;;;;;;;;;;;;4998470;28;20050;-60
2022/07/28 04:20:57;;;;;;;5.57;2.00;;;;;;;;;;4999695;28;19977;-61
2022/07/28 04:23:25;;;;;;;5.78;1.63;;;;;;;;;;5001984;28;20066;-60
2022/07/28 04:25:52;;;;;;;6.85;1.75;;;;;;;;;;5001101;28;20046;-60
2022/07/28 04:28:19;;;;;;;3.88;2.08;;;;;;;;;;4995487;28;20532;-60
2022/07/28 04:30:47;;;;;;;;;;;;;;;;;;4999364;28;20077;-60
2022/07/28 04:33:14;;;;;;;3.92;1.60;;;;;;;;;;5001049;28;20303;-60
2022/07/28 04:35:41;;;;;;;2.97;1.60;;;;;;;;;;4998880;28;20054;-60
2022/07/28 04:38:10;;;;;;;1.38;1.27;;;;;;;;;;5000706;28;20525;-60
2022/07/28 04:40:38;;;;;;;2.38;1.13;;;;;;;;;;4994132;28;20078;-61
2022/07/28 04:43:05;;;;;;;2.13;1.50;;;;;;;;;;5005022;28;20077;-60
2022/07/28 04:45:33;;;;;;;2.35;1.42;;;;;;;;;;4999374;28;20525;-61
2022/07/28 04:48:00;;;;;;;7.18;1.27;;;;;;;;;;4999358;28;20046;-60
2022/07/28 04:50:28;;;;;;;3.72;1.30;;;;;;;;;;5002126;28;20050;-60
2022/07/28 04:52:55;;;;;;;;;;;;;;;;;;4996850;28;20139;-61
2022/07/28 04:55:22;;;;;;;2.58;1.38;;;;;;;;;;4997751;28;19960;-60
2022/07/28 04:57:50;;;;;;;5.47;1.50;;;;;;;;;;4998083;28;20073;-60
2022/07/28 05:00:19;;;;;;;3.83;1.50;;;;;;;;;;4999322;28;20057;-60
2022/07/28 05:02:49;;;;;;;1.95;1.20;;;;;;;;;;4993841;28;20050;-60
2022/07/28 05:05:16;;;;;;;1.45;1.13;;;;;;;;;;4999163;28;20046;-60
2022/07/28 05:07:44;;;;;;;;;;;;;;;;;;4998034;28;20474;-60
2022/07/28 05:10:11;;;;;;;4.78;1.30;;;;;;;;;;4996634;28;19965;-60
2022/07/28 05:12:38;;;;;;;;;;;;;;;;;;5000245;28;20062;-60
2022/07/28 05:15:07;;;;;;;4.75;1.63;;;;;;;;;;5001381;28;19961;-59
2022/07/28 05:17:35;;;;;;;5.63;1.58;;;;;;;;;;4998036;28;21012;-61
2022/07/28 05:20:04;;;;;;;2.10;1.30;;;;;;;;;;4995562;28;20769;-60
2022/07/28 05:22:41;;;;;;;2.58;1.40;;;;;;;;;;4997850;28;20062;-60
2022/07/28 05:25:16;;;;;;;3.53;1.55;;;;;;;;;;5000015;28;20168;-60
2022/07/28 05:27:44;;;;;;;4.55;1.30;;;;;;;;;;4998734;28;20061;-60
2022/07/28 05:30:11;;;;;;;;;;;;;;;;;;4996043;28;20749;-61
2022/07/28 05:32:38;;;;;;;1.50;1.40;;;;;;;;;;4998280;28;19976;-61
2022/07/28 05:35:06;;;;;;;3.65;1.75;;;;;;;;;;4997792;28;20045;-61
2022/07/28 05:37:34;;;;;;;;;;;;;;;;;;4998020;28;20078;-60
2022/07/28 05:40:02;;;;;;;3.67;1.38;;;;;;;;;;4995953;28;19926;-61
2022/07/28 05:42:34;;;;;;;2.20;1.25;;;;;;;;;;4994343;28;20078;-60
2022/07/28 05:45:03;;;;;;;4.25;1.35;;;;;;;;;;5000672;28;20602;-60
2022/07/28 05:47:46;;;;;;;2.50;1.40;;;;;;;;;;4997901;28;20046;-60
2022/07/28 05:50:14;;;;;;;1.85;1.13;;;;;;;;;;5000127;28;20050;-60
2022/07/28 05:52:42;;;;;;;2.35;1.55;;;;;;;;;;4995001;28;20144;-61
2022/07/28 05:55:09;;;;;;;4.13;1.45;;;;;;;;;;4997452;28;20112;-59
2022/07/28 05:57:36;;;;;;;;;;;;;;;;;;4996996;28;20573;-61
2022/07/28 06:00:05;;;;;;;2.00;1.05;;;;;;;;;;4998319;28;19953;-60
2022/07/28 06:02:33;;;;;;;1.85;1.23;;;;;;;;;;4994860;28;20078;-60
2022/07/28 06:05:00;;;;;;;1.42;1.33;;;;;;;;;;4999150;28;20089;-60
2022/07/28 06:07:28;;;;;;;3.13;1.30;;;;;;;;;;4999665;28;20085;-60
2022/07/28 06:10:10;;;;;;;1.02;0.88;;;;;;;;;;4995334;28;20052;-60
2022/07/28 06:12:45;;;;;;;1.45;1.17;;;;;;;;;;4996358;28;20050;-60
2022/07/28 06:15:16;;;;;;;2.00;1.00;;;;;;;;;;4996889;28;20050;-60
2022/07/28 06:17:44;;;;;;;0.80;0.80;;;;;;;;;;4996412;28;20449;-60
2022/07/28 06:20:11;;;;;;;2.47;1.10;;;;;;;;;;4996004;28;20472;-60
2022/07/28 10:18:49;;;;;;;1.42;0.77;;;;;;;;;;6110080;22;1681506;-87
2022/07/28 10:21:17;;;;;;;2.22;0.73;;;;;;;;;;6180717;23;20025;-87
2022/07/28 10:23:49;;;;;;;1.58;0.93;;;;;;;;;;6180050;23;20390;-87
2022/07/28 10:26:20;;;;;;;2.60;1.00;;;;;;;;;;6179753;23;20212;-88
2022/07/28 10:28:49;;;;;;;1.75;0.73;;;;;;;;;;6179983;23;20083;-87
2022/07/28 10:31:38;;;;;;;1.58;0.95;;;;;;;;;;6181180;23;20025;-87
2022/07/28 10:34:08;;;;;;;2.78;1.15;;;;;;;;;;6180050;23;20024;-88
2022/07/28 10:36:42;;;;;;;2.72;1.00;;;;;;;;;;6179754;23;20048;-87
2022/07/28 10:39:15;;;;;;;1.88;0.90;;;;;;;;;;6180203;23;20025;-88
2022/07/28 10:41:42;;;;;;;1.65;1.17;;;;;;;;;;6181277;23;20282;-87
2022/07/28 10:44:12;;;;;;;1.65;1.00;;;;;;;;;;6180063;23;20485;-88
2022/07/28 10:46:42;;;;;;;0.88;0.75;;;;;;;;;;6181151;23;20407;-88
2022/07/28 10:49:10;;;;;;;3.78;1.00;;;;;;;;;;6181624;23;20056;-88
2022/07/28 10:51:39;;;;;;;2.42;0.52;;;;;;;;;;6179092;23;20027;-87
2022/07/28 10:54:28;;;;;;;2.30;0.50;;;;;;;;;;6179702;23;20107;-87
2022/07/28 10:57:00;;;;;;;1.17;0.70;;;;;;;;;;6178587;23;20021;-88
2022/07/28 10:59:42;;;;;;;0.77;0.77;;;;;;;;;;6180321;23;20017;-89
2022/07/28 11:02:29;;;;;;;1.75;0.98;;;;;;;;;;6181461;23;20021;-88
2022/07/28 11:05:00;;;;;;;2.55;0.57;;;;;;;;;;6180807;23;20533;-87
2022/07/28 11:07:37;;;;;;;0.50;0.50;;;;;;;;;;6180838;23;20025;-87
2022/07/28 11:10:15;;;;;;;1.03;0.40;;;;;;;;;;6180929;23;20458;-88
2022/07/28 11:12:53;;;;;;;1.38;0.90;;;;;;;;;;6181124;23;20248;-88
2022/07/28 11:15:25;;;;;;;1.30;0.50;;;;;;;;;;6180665;23;20029;-88
2022/07/28 11:17:57;;;;;;;0.95;0.60;;;;;;;;;;6179975;23;20025;-88
2022/07/28 11:20:44;;;;;;;0.40;0.40;;;;;;;;;;6180758;23;20021;-89
2022/07/28 11:23:30;;;;;;;0.70;0.40;;;;;;;;;;6180652;23;20473;-89
2022/07/28 11:26:23;;;;;;;0.82;0.50;;;;;;;;;;6180806;23;20450;-88
2022/07/28 11:29:04;;;;;;;1.05;0.60;;;;;;;;;;6176967;23;20091;-88
2022/07/28 11:31:44;;;;;;;2.60;0.70;;;;;;;;;;6179095;23;20083;-89
2022/07/28 11:34:11;;;;;;;0.85;0.45;;;;;;;;;;6180861;23;20025;-88
2022/07/28 11:36:57;;;;;;;0.63;0.50;;;;;;;;;;6181165;23;20017;-89
2022/07/28 11:39:26;;;;;;;0.73;0.52;;;;;;;;;;6180996;23;20076;-88
2022/07/28 11:41:53;;;;;;;1.25;0.60;;;;;;;;;;6181451;23;20025;-88
2022/07/28 11:44:29;;;;;;;3.17;0.70;;;;;;;;;;6181239;23;20082;-89
2022/07/28 11:47:15;;;;;;;0.65;0.60;;;;;;;;;;6180852;23;20083;-90
2022/07/28 11:49:43;;;;;;;3.53;0.57;;;;;;;;;;6181582;23;20060;-89
2022/07/28 11:52:13;;;;;;;0.45;0.45;;;;;;;;;;6181183;23;20025;-88
2022/07/28 11:54:47;;;;;;;0.60;0.60;;;;;;;;;;6180289;23;20529;-89
2022/07/28 11:57:14;;;;;;;0.65;0.50;;;;;;;;;;6179616;23;20040;-88
2022/07/28 11:59:46;;;;;;;1.25;0.60;;;;;;;;;;6178724;23;20458;-89
2022/07/28 12:02:16;;;;;;;1.70;0.43;;;;;;;;;;6180212;23;20020;-89
2022/07/28 12:04:45;;;;;;;1.17;0.77;;;;;;;;;;6178493;23;20390;-88
2022/07/28 12:07:12;;;;;;;;;;;;;;;;;;6179019;23;20064;-88
2022/07/28 12:09:39;;;;;;;0.55;0.50;;;;;;;;;;6180082;23;19916;-88
2022/07/28 12:12:09;;;;;;;1.75;0.75;;;;;;;;;;6182533;23;20080;-87
2022/07/28 12:14:38;;;;;;;0.52;0.52;;;;;;;;;;6180637;23;20028;-88
2022/07/28 12:17:06;;;;;;;0.65;0.65;;;;;;;;;;6182009;23;20079;-89
2022/07/28 12:19:33;;;;;;;0.38;0.35;;;;;;;;;;6181855;23;20071;-90
2022/07/28 12:22:01;;;;;;;0.52;0.52;;;;;;;;;;6181570;23;20021;-91
2022/07/28 12:24:30;;;;;;;1.42;0.60;;;;;;;;;;6182275;23;20025;-88
2022/07/28 12:27:12;;;;;;;0.95;0.40;;;;;;;;;;6182427;23;20043;-88
2022/07/28 12:29:41;;;;;;;0.95;0.40;;;;;;;;;;6179909;23;20021;-87
2022/07/28 12:32:09;;;;;;;1.05;0.40;;;;;;;;;;6181939;23;20359;-89
2022/07/28 12:34:39;;;;;;;0.50;0.40;;;;;;;;;;6180162;23;20492;-88
2022/07/28 12:37:11;;;;;;;2.28;0.50;;;;;;;;;;6180324;23;20422;-89
2022/07/28 12:39:40;;;;;;;1.00;0.70;;;;;;;;;;6181187;23;20096;-89
2022/07/28 12:42:10;;;;;;;0.50;0.40;;;;;;;;;;6181704;23;20492;-87
2022/07/28 12:44:38;;;;;;;1.73;0.60;;;;;;;;;;6181954;23;20032;-89
2022/07/28 12:47:07;;;;;;;2.03;0.60;;;;;;;;;;6182035;23;20100;-88
2022/07/28 12:49:36;;;;;;;0.38;0.38;;;;;;;;;;6178168;23;20025;-87
2022/07/28 12:52:16;;;;;;;0.30;0.30;;;;;;;;;;6181468;23;20087;-88
2022/07/28 12:54:44;;;;;;;2.13;0.50;;;;;;;;;;6179299;23;20465;-89
2022/07/28 12:57:40;;;;;;;0.88;0.52;;;;;;;;;;6182123;23;20394;-88
2022/07/28 13:00:17;;;;;;;0.47;0.40;;;;;;;;;;6181463;23;20071;-88
2022/07/28 13:02:45;;;;;;;0.45;0.45;;;;;;;;;;6181532;23;20386;-88
2022/07/28 13:05:28;;;;;;;0.30;0.30;;;;;;;;;;6181947;23;20067;-89
2022/07/28 13:08:03;;;;;;;1.33;0.50;;;;;;;;;;6181714;23;20071;-89
2022/07/28 13:10:32;;;;;;;1.10;0.60;;;;;;;;;;6182755;23;20029;-89
2022/07/28 13:13:01;;;;;;;1.33;0.60;;;;;;;;;;6181502;23;20394;-88
2022/07/28 13:15:28;;;;;;;1.17;0.60;;;;;;;;;;6181888;23;20083;-88
2022/07/28 13:17:57;;;;;;;2.90;0.50;;;;;;;;;;6182358;23;20020;-89
2022/07/28 13:20:25;;;;;;;0.43;0.43;;;;;;;;;;6180649;23;20056;-89
2022/07/28 13:22:52;;;;;;;;;;;;;;;;;;6183239;23;20021;-88
2022/07/28 13:25:20;;;;;;;0.88;0.40;;;;;;;;;;6182054;23;19916;-87
2022/07/28 13:27:47;;;;;;;0.68;0.50;;;;;;;;;;6181891;23;20049;-88
2022/07/28 13:30:22;;;;;;;0.77;0.43;;;;;;;;;;6182050;23;20024;-85
2022/07/28 13:32:50;;;;;;;2.80;0.70;;;;;;;;;;6180294;23;20032;-88
2022/07/28 13:35:17;;;;;;;1.58;0.80;;;;;;;;;;6181212;23;20039;-90
2022/07/28 13:37:47;;;;;;;0.52;0.52;;;;;;;;;;6181009;23;20366;-89
2022/07/28 13:40:14;;;;;;;2.40;0.60;;;;;;;;;;6181621;23;20028;-89
2022/07/28 13:42:42;;;;;;;4.07;0.60;;;;;;;;;;6181465;23;20398;-90
2022/07/28 13:45:22;;;;;;;0.90;0.90;;;;;;;;;;6181899;23;20021;-90
2022/07/28 13:47:50;;;;;;;0.77;0.60;;;;;;;;;;6180961;23;20540;-90
2022/07/28 13:50:19;;;;;;;0.60;0.50;;;;;;;;;;6181257;23;20025;-91
2022/07/28 13:52:47;;;;;;;1.00;0.50;;;;;;;;;;6181153;23;20029;-91
2022/07/28 13:55:14;;;;;;;0.75;0.70;;;;;;;;;;6180817;23;20075;-90
2022/07/28 13:57:48;;;;;;;0.60;0.60;;;;;;;;;;6180787;23;20063;-91
2022/07/28 14:00:18;;;;;;;3.30;0.60;;;;;;;;;;6181201;23;20096;-89
2022/07/28 14:02:48;;;;;;;0.52;0.52;;;;;;;;;;6180273;23;20059;-89
2022/07/28 14:05:17;;;;;;;1.48;0.60;;;;;;;;;;6181271;23;20021;-91
2022/07/28 14:07:44;;;;;;;0.40;0.40;;;;;;;;;;6181706;23;20048;-88
2022/07/28 14:10:15;;;;;;;0.80;0.50;;;;;;;;;;6155867;23;20537;-90
2022/07/28 14:12:42;;;;;;;0.77;0.52;;;;;;;;;;6181754;23;20083;-89
2022/07/28 14:15:12;;;;;;;1.33;0.55;;;;;;;;;;6181251;23;20028;-89
2022/07/28 14:17:39;;;;;;;;;;;;;;;;;;6179294;23;20345;-88
2022/07/28 14:20:11;;;;;;;0.80;0.50;;;;;;;;;;6180944;23;20260;-86
2022/07/28 14:22:39;;;;;;;2.45;0.50;;;;;;;;;;6180572;23;20028;-88
2022/07/28 14:25:06;;;;;;;;;;;;;;;;;;6181137;23;20335;-88
2022/07/28 14:27:33;;;;;;;2.35;0.60;;;;;;;;;;6181154;23;20130;-88
2022/07/28 14:30:00;;;;;;;;;;;;;;;;;;6182090;23;20055;-89
2022/07/28 14:32:29;;;;;;;2.35;0.50;;;;;;;;;;6181206;23;19919;-87
2022/07/28 14:34:57;;;;;;;0.65;0.60;;;;;;;;;;6179869;23;20056;-88
2022/07/28 14:37:24;;;;;;;2.33;0.73;;;;;;;;;;6181306;23;20025;-88
2022/07/28 14:39:51;;;;;;;0.47;0.40;;;;;;;;;;6181201;23;20025;-89
2022/07/28 14:42:19;;;;;;;0.88;0.57;;;;;;;;;;6179088;23;20536;-89
2022/07/28 14:44:46;;;;;;;0.60;0.52;;;;;;;;;;6180749;23;20021;-90
2022/07/28 14:47:14;;;;;;;1.02;0.57;;;;;;;;;;6181077;23;20071;-90
2022/07/28 14:49:41;;;;;;;3.78;1.20;;;;;;;;;;6180606;23;20033;-90
2022/07/28 14:52:25;;;;;;;2.85;1.05;;;;;;;;;;6181020;23;20021;-89
2022/07/28 14:54:56;;;;;;;2.75;1.20;;;;;;;;;;6180287;23;20540;-90
2022/07/28 14:57:23;;;;;;;4.28;1.20;;;;;;;;;;6180493;23;20025;-90
2022/07/28 15:00:12;;;;;;;2.40;1.42;;;;;;;;;;6180806;23;20154;-90
2022/07/28 15:02:40;;;;;;;4.43;1.00;;;;;;;;;;6180675;23;20462;-88
2022/07/28 15:05:08;;;;;;;5.70;1.20;;;;;;;;;;6180249;23;20056;-89
2022/07/28 15:07:35;;;;;;;2.63;0.77;;;;;;;;;;6180231;23;20029;-89
2022/07/28 15:10:04;;;;;;;3.20;1.13;;;;;;;;;;6179417;23;20362;-89
2022/07/28 15:12:31;;;;;;;4.78;1.20;;;;;;;;;;6181090;23;20356;-89
2022/07/28 15:15:00;;;;;;;3.40;1.10;;;;;;;;;;6180915;23;20021;-88
2022/07/28 15:17:27;;;;;;;6.05;1.02;;;;;;;;;;6181072;23;20036;-88
2022/07/28 15:19:55;;;;;;;1.67;0.93;;;;;;;;;;6181355;23;20052;-90
2022/07/28 15:22:22;;;;;;;3.78;1.05;;;;;;;;;;6179477;23;20050;-90
2022/07/28 15:24:52;;;;;;;3.25;1.13;;;;;;;;;;6180142;23;20027;-90
2022/07/28 15:27:19;;;;;;;4.32;1.27;;;;;;;;;;6181124;23;20051;-89
2022/07/28 15:29:47;;;;;;;3.38;1.15;;;;;;;;;;6181478;23;20029;-89
2022/07/28 15:32:18;;;;;;;2.55;1.05;;;;;;;;;;6181632;23;20024;-89
2022/07/28 15:34:54;;;;;;;2.35;0.90;;;;;;;;;;6180672;23;20099;-88
2022/07/28 15:37:22;;;;;;;4.47;1.20;;;;;;;;;;6181595;23;20072;-89
2022/07/28 15:39:49;;;;;;;2.85;0.93;;;;;;;;;;6181037;23;20032;-89
2022/07/28 15:42:16;;;;;;;;;;;;;;;;;;6182182;23;20025;-90
2022/07/28 15:44:44;;;;;;;1.95;0.90;;;;;;;;;;6181134;23;19945;-89
2022/07/28 15:47:11;;;;;;;1.85;1.08;;;;;;;;;;6183090;23;20020;-89
2022/07/28 15:49:38;;;;;;;7.13;1.08;;;;;;;;;;6182014;23;20450;-89
2022/07/28 15:52:06;;;;;;;4.85;0.90;;;;;;;;;;6180468;23;20033;-89
2022/07/28 15:54:33;;;;;;;3.33;0.98;;;;;;;;;;6182630;23;20056;-88
2022/07/28 15:57:00;;;;;;;2.03;1.00;;;;;;;;;;6183673;23;20017;-91
2022/07/28 15:59:28;;;;;;;2.00;1.15;;;;;;;;;;6181675;23;20025;-90
2022/07/28 16:02:15;;;;;;;5.13;1.27;;;;;;;;;;6182035;23;20073;-89
2022/07/28 16:04:43;;;;;;;2.95;1.13;;;;;;;;;;6181929;23;20526;-89
2022/07/28 16:07:23;;;;;;;2.92;1.13;;;;;;;;;;6182768;23;20079;-90
2022/07/28 16:09:54;;;;;;;2.20;0.85;;;;;;;;;;6181462;23;20021;-89
2022/07/28 16:12:23;;;;;;;1.23;0.93;;;;;;;;;;6180902;23;20387;-90
2022/07/28 16:14:54;;;;;;;4.70;1.17;;;;;;;;;;6181868;23;20025;-89
2022/07/28 16:17:22;;;;;;;1.98;1.10;;;;;;;;;;6180073;23;20021;-89
2022/07/28 16:19:50;;;;;;;4.43;1.23;;;;;;;;;;6182459;23;20025;-90
2022/07/28 16:22:18;;;;;;;3.97;1.13;;;;;;;;;;6182434;23;20021;-89
2022/07/28 16:24:46;;;;;;;4.20;1.10;;;;;;;;;;6181638;23;20075;-89
2022/07/28 16:27:13;;;;;;;;;;;;;;;;;;6182205;23;20650;-89
2022/07/28 16:29:40;;;;;;;4.07;1.02;;;;;;;;;;6181672;23;19916;-90
2022/07/28 16:32:08;;;;;;;2.60;1.40;;;;;;;;;;6182299;23;20068;-89
2022/07/28 16:34:35;;;;;;;;;;;;;;;;;;6182508;23;20017;-90
2022/07/28 16:37:03;;;;;;;2.80;1.17;;;;;;;;;;6180950;23;19975;-89
2022/07/28 16:39:32;;;;;;;2.55;1.10;;;;;;;;;;6180521;23;20056;-89
2022/07/28 16:41:59;;;;;;;5.95;1.30;;;;;;;;;;6182744;23;20025;-90
2022/07/28 16:44:28;;;;;;;3.88;1.00;;;;;;;;;;6181537;23;20029;-89
2022/07/28 16:46:55;;;;;;;2.78;1.08;;;;;;;;;;6182295;23;20029;-90
2022/07/28 16:49:23;;;;;;;2.17;1.20;;;;;;;;;;6181223;23;20025;-89
2022/07/28 16:51:50;;;;;;;5.60;1.20;;;;;;;;;;6181859;23;20025;-89
2022/07/28 16:54:18;;;;;;;3.67;1.40;;;;;;;;;;6181587;23;20515;-89
2022/07/28 16:56:46;;;;;;;1.88;1.17;;;;;;;;;;6181188;23;20035;-89
2022/07/28 16:59:13;;;;;;;4.47;1.45;;;;;;;;;;6182221;23;20401;-89
2022/07/28 17:01:41;;;;;;;8.20;1.52;;;;;;;;;;6180652;23;20028;-89
2022/07/28 17:04:13;;;;;;;2.35;1.25;;;;;;;;;;6181909;23;20017;-89
2022/07/28 17:06:41;;;;;;;0.98;0.90;;;;;;;;;;6181574;23;20025;-89
2022/07/28 17:09:09;;;;;;;2.58;1.05;;;;;;;;;;6181821;23;20021;-88
2022/07/28 17:11:36;;;;;;;1.58;0.90;;;;;;;;;;6181409;23;20521;-89
2022/07/28 17:14:04;;;;;;;2.67;1.05;;;;;;;;;;6181332;23;20071;-89
2022/07/28 17:16:31;;;;;;;4.25;0.98;;;;;;;;;;6181536;23;20068;-88
2022/07/28 17:18:59;;;;;;;2.05;1.02;;;;;;;;;;6181693;23;20017;-88
2022/07/28 17:21:26;;;;;;;;;;;;;;;;;;6182886;23;20461;-89
2022/07/28 17:23:53;;;;;;;4.00;1.13;;;;;;;;;;6181682;23;19966;-87
2022/07/28 17:26:21;;;;;;;1.30;0.98;;;;;;;;;;6182068;23;20021;-88
2022/07/28 17:29:08;;;;;;;1.75;0.70;;;;;;;;;;6181547;23;20108;-89
2022/07/28 17:31:37;;;;;;;1.00;0.70;;;;;;;;;;6180019;23;20087;-89
2022/07/28 17:34:04;;;;;;;1.50;0.85;;;;;;;;;;6181387;23;20021;-88
2022/07/28 17:36:34;;;;;;;0.82;0.55;;;;;;;;;;6181446;23;20074;-88
2022/07/28 17:39:02;;;;;;;1.42;0.65;;;;;;;;;;6180873;23;20044;-88
2022/07/28 17:41:29;;;;;;;2.15;0.60;;;;;;;;;;6181213;23;20103;-87
2022/07/28 17:43:56;;;;;;;2.03;0.82;;;;;;;;;;6181238;23;20420;-87
2022/07/28 17:46:24;;;;;;;1.02;0.93;;;;;;;;;;6179640;23;20071;-88
2022/07/28 17:48:53;;;;;;;1.17;0.68;;;;;;;;;;6178263;23;20043;-88
2022/07/28 17:51:20;;;;;;;;;;;;;;;;;;6181315;23;20427;-88
2022/07/28 17:53:47;;;;;;;1.30;1.00;;;;;;;;;;6180534;23;20277;-88
2022/07/28 17:56:16;;;;;;;2.35;1.38;;;;;;;;;;6181356;23;20085;-88
2022/07/28 17:58:44;;;;;;;2.55;0.88;;;;;;;;;;6180399;23;20065;-88
2022/07/28 18:01:13;;;;;;;1.75;0.80;;;;;;;;;;6180753;23;20435;-87
2022/07/28 18:03:42;;;;;;;2.28;1.10;;;;;;;;;;6180452;23;20032;-88
2022/07/28 18:06:27;;;;;;;1.20;0.90;;;;;;;;;;6180256;23;20029;-88
2022/07/28 18:08:54;;;;;;;1.52;1.20;;;;;;;;;;6180066;23;20067;-88
2022/07/28 18:11:22;;;;;;;2.40;1.20;;;;;;;;;;6181956;23;20083;-88
2022/07/28 18:13:49;;;;;;;3.45;1.23;;;;;;;;;;6179830;23;20612;-88
2022/07/28 18:16:31;;;;;;;3.47;1.90;;;;;;;;;;6181188;23;20488;-86
2022/07/28 18:18:58;;;;;;;2.72;1.73;;;;;;;;;;6181819;23;20529;-88
2022/07/28 18:21:25;;;;;;;;;;;;;;;;;;6180703;23;20029;-88
2022/07/28 18:23:53;;;;;;;4.72;2.05;;;;;;;;;;6181628;23;19974;-88
2022/07/28 18:26:21;;;;;;;4.25;2.30;;;;;;;;;;6180803;23;20024;-88
2022/07/28 18:28:48;;;;;;;3.25;2.20;;;;;;;;;;6180692;23;20350;-87
2022/07/28 18:31:16;;;;;;;3.70;2.60;;;;;;;;;;6180614;23;20087;-88
2022/07/28 18:33:43;;;;;;;6.65;2.30;;;;;;;;;;6181144;23;20028;-87
2022/07/28 18:36:11;;;;;;;4.90;2.67;;;;;;;;;;6181064;23;20025;-88
2022/07/28 18:38:40;;;;;;;4.75;2.55;;;;;;;;;;6179447;23;20318;-87
2022/07/28 18:41:07;;;;;;;4.13;2.47;;;;;;;;;;6180364;23;20482;-87
2022/07/28 18:43:35;;;;;;;6.13;2.50;;;;;;;;;;6180746;23;20021;-86
2022/07/28 18:46:04;;;;;;;4.05;2.40;;;;;;;;;;6180378;23;20056;-87
2022/07/28 18:48:31;;;;;;;4.47;2.83;;;;;;;;;;6180990;23;20052;-86
2022/07/28 18:50:59;;;;;;;3.95;2.58;;;;;;;;;;6180589;23;20362;-87
2022/07/28 18:53:27;;;;;;;4.22;2.65;;;;;;;;;;6180058;23;20021;-87
2022/07/28 18:55:54;;;;;;;3.50;2.60;;;;;;;;;;6179973;23;20037;-87
2022/07/28 18:58:22;;;;;;;;;;;;;;;;;;6181140;23;20440;-87
2022/07/28 19:00:49;;;;;;;4.47;2.47;;;;;;;;;;6179866;23;20345;-87
2022/07/28 19:03:16;;;;;;;4.00;2.60;;;;;;;;;;6179824;23;20025;-87